createdAt,value
2023-06-07T00:00:43.047Z,52.46
2023-06-07T00:03:10.753Z,52.08
2023-06-07T00:05:38.398Z,52.33
2023-06-07T00:08:05.341Z,52.52
2023-06-07T00:10:33.178Z,53.79
2023-06-07T00:13:00.112Z,53.05
2023-06-07T00:15:26.850Z,54.21
2023-06-07T00:17:54.195Z,54.86
2023-06-07T00:20:20.819Z,55.02
2023-06-07T00:22:48.638Z,55.88
2023-06-07T00:25:15.232Z,57.06
2023-06-07T00:27:41.734Z,56.44
2023-06-07T00:30:09.010Z,56.76
2023-06-07T00:32:35.579Z,55.89
2023-06-07T00:35:02.151Z,56.19
2023-06-07T00:37:28.722Z,57.34
2023-06-07T00:39:55.306Z,59.08
2023-06-07T00:42:21.836Z,58.71
2023-06-07T00:44:48.518Z,59.74
2023-06-07T00:47:15.271Z,60.12
2023-06-07T00:49:43.711Z,60.09
2023-06-07T00:52:11.170Z,59.69
2023-06-07T00:54:38.294Z,59.98
2023-06-07T00:57:06.494Z,60.18
2023-06-07T00:59:33.228Z,60.60
2023-06-07T01:02:02.389Z,60.59
2023-06-07T01:04:30.337Z,60.54
2023-06-07T01:06:57.143Z,60.20
2023-06-07T01:09:24.893Z,60.56
2023-06-07T01:11:54.196Z,60.58
2023-06-07T01:14:22.523Z,61.71
2023-06-07T01:16:51.989Z,61.80
2023-06-07T01:19:24.716Z,61.69
2023-06-07T01:21:55.782Z,62.22
2023-06-07T01:24:23.451Z,62.17
2023-06-07T01:26:58.292Z,62.24
2023-06-07T01:29:27.211Z,63.00
2023-06-07T01:31:55.700Z,63.79
2023-06-07T01:34:22.627Z,63.32
2023-06-07T01:36:49.932Z,63.31
2023-06-07T01:39:19.770Z,63.53
2023-06-07T01:41:49.172Z,63.69
2023-06-07T01:44:16.450Z,64.63
2023-06-07T01:46:43.718Z,64.26
2023-06-07T01:49:10.351Z,63.40
2023-06-07T01:51:37.285Z,63.61
2023-06-07T01:54:05.589Z,64.68
2023-06-07T01:56:41.139Z,65.87
2023-06-07T01:59:36.940Z,66.65
2023-06-07T02:02:12.491Z,66.00
2023-06-07T02:04:46.114Z,67.09
2023-06-07T02:07:23.571Z,66.47
2023-06-07T02:09:51.743Z,66.77
2023-06-07T02:12:21.452Z,67.17
2023-06-07T02:14:52.289Z,67.94
2023-06-07T02:17:19.476Z,68.95
2023-06-07T02:19:46.409Z,68.37
2023-06-07T02:22:15.337Z,69.14
2023-06-07T02:24:42.247Z,68.96
2023-06-07T02:27:10.093Z,69.85
2023-06-07T02:29:36.703Z,69.47
2023-06-07T02:32:03.386Z,68.39
2023-06-07T02:34:33.625Z,68.17
2023-06-07T02:37:00.250Z,69.63
2023-06-07T02:39:26.862Z,68.90
2023-06-07T02:41:53.338Z,68.86
2023-06-07T02:44:19.902Z,69.30
2023-06-07T02:46:46.686Z,69.67
2023-06-07T02:49:13.330Z,69.41
2023-06-07T02:51:40.338Z,69.03
2023-06-07T02:54:10.850Z,68.51
2023-06-07T02:56:37.488Z,69.66
2023-06-07T02:59:04.077Z,70.63
2023-06-07T03:01:34.474Z,70.96
2023-06-07T03:04:01.190Z,70.54
2023-06-07T03:06:30.582Z,72.04
2023-06-07T03:08:59.877Z,72.26
2023-06-07T03:11:26.450Z,71.00
2023-06-07T03:13:52.982Z,69.01
2023-06-07T03:16:19.582Z,68.71
2023-06-07T03:18:46.571Z,68.20
2023-06-07T03:21:13.089Z,68.22
2023-06-07T03:23:39.675Z,68.44
2023-06-07T03:26:06.401Z,68.58
2023-06-07T03:28:33.218Z,67.97
2023-06-07T03:30:59.781Z,68.31
2023-06-07T03:33:26.376Z,68.07
2023-06-07T03:35:52.969Z,69.85
2023-06-07T03:38:19.529Z,68.92
2023-06-07T03:40:46.091Z,70.27
2023-06-07T03:43:12.596Z,69.96
2023-06-07T03:45:39.142Z,69.88
2023-06-07T03:48:05.976Z,70.82
2023-06-07T03:50:32.648Z,71.63
2023-06-07T03:52:59.215Z,71.46
2023-06-07T03:55:25.792Z,70.22
2023-06-07T03:57:52.786Z,70.21
2023-06-07T04:00:19.494Z,69.43
2023-06-07T04:02:46.750Z,69.55
2023-06-07T04:05:13.997Z,69.78
2023-06-07T04:07:41.870Z,71.19
2023-06-07T04:10:08.635Z,71.03
2023-06-07T04:12:35.448Z,72.03
2023-06-07T04:15:02.247Z,71.31
2023-06-07T04:17:28.795Z,70.71
2023-06-07T04:19:57.710Z,71.15
2023-06-07T04:22:25.612Z,72.60
2023-06-07T04:24:52.946Z,70.99
2023-06-07T04:27:19.760Z,70.12
2023-06-07T04:29:50.131Z,69.37
2023-06-07T04:32:20.068Z,69.94
2023-06-07T04:34:47.425Z,70.34
2023-06-07T04:37:13.993Z,70.54
2023-06-07T04:39:42.272Z,69.99
2023-06-07T04:42:10.524Z,68.43
2023-06-07T04:44:38.102Z,68.39
2023-06-07T04:47:09.876Z,69.46
2023-06-07T04:49:39.788Z,68.70
2023-06-07T04:52:06.937Z,68.59
2023-06-07T04:54:33.636Z,67.61
2023-06-07T04:57:01.013Z,67.40
2023-06-07T04:59:30.711Z,68.28
2023-06-07T05:01:57.315Z,67.11
2023-06-07T05:04:23.916Z,68.10
2023-06-07T05:06:50.519Z,67.92
2023-06-07T05:09:17.119Z,66.87
2023-06-07T05:11:43.612Z,64.86
2023-06-07T05:14:10.089Z,65.15
2023-06-07T05:16:36.918Z,66.47
2023-06-07T05:19:04.944Z,65.18
2023-06-07T05:21:31.623Z,63.78
2023-06-07T05:23:58.213Z,61.14
2023-06-07T05:26:24.821Z,61.84
2023-06-07T05:28:52.299Z,58.90
2023-06-07T05:31:20.112Z,59.69
2023-06-07T05:33:46.765Z,58.32
2023-06-07T05:36:13.320Z,57.08
2023-06-07T05:38:40.044Z,56.55
2023-06-07T05:41:06.647Z,56.83
2023-06-07T05:43:33.231Z,56.85
2023-06-07T05:45:59.801Z,56.81
2023-06-07T05:48:26.294Z,55.08
2023-06-07T05:50:53.282Z,54.71
2023-06-07T05:53:19.860Z,55.35
2023-06-07T05:55:47.179Z,54.81
2023-06-07T05:58:13.789Z,53.78
2023-06-07T06:00:41.852Z,52.17
2023-06-07T06:03:09.658Z,53.02
2023-06-07T06:05:36.327Z,51.59
2023-06-07T06:08:03.922Z,50.35
2023-06-07T06:10:32.386Z,50.39
2023-06-07T06:13:00.540Z,50.20
2023-06-07T06:15:27.115Z,51.62
2023-06-07T06:17:56.886Z,52.32
2023-06-07T06:20:23.550Z,52.11
2023-06-07T06:22:50.057Z,53.48
2023-06-07T06:25:16.677Z,51.34
2023-06-07T06:27:43.438Z,50.54
2023-06-07T06:30:10.321Z,50.30
2023-06-07T06:32:36.968Z,49.59
2023-06-07T06:35:04.374Z,47.29
2023-06-07T06:37:31.288Z,46.25
2023-06-07T06:39:58.015Z,45.57
2023-06-07T06:42:24.780Z,44.81
2023-06-07T06:44:51.306Z,44.78
2023-06-07T06:47:17.916Z,43.41
2023-06-07T06:49:44.591Z,42.51
2023-06-07T06:52:11.362Z,42.63
2023-06-07T06:54:37.833Z,43.51
2023-06-07T06:57:04.839Z,44.06
2023-06-07T06:59:31.379Z,43.22
2023-06-07T07:01:58.161Z,42.47
2023-06-07T07:04:24.796Z,43.94
2023-06-07T07:06:51.583Z,42.81
2023-06-07T07:09:20.845Z,43.21
2023-06-07T07:11:47.429Z,41.24
2023-06-07T07:14:14.113Z,41.07
2023-06-07T07:16:40.930Z,39.83
2023-06-07T07:19:07.516Z,40.46
2023-06-07T07:21:34.000Z,39.65
2023-06-07T07:24:00.586Z,38.37
2023-06-07T07:26:27.329Z,37.16
2023-06-07T07:28:54.624Z,36.77
2023-06-07T07:31:22.298Z,36.31
2023-06-07T07:33:49.364Z,37.75
2023-06-07T07:36:18.725Z,38.25
2023-06-07T07:38:47.219Z,37.30
2023-06-07T07:41:15.489Z,36.77
2023-06-07T07:43:42.084Z,35.15
2023-06-07T07:46:08.756Z,32.79
2023-06-07T07:48:35.545Z,32.89
2023-06-07T07:51:03.271Z,32.77
2023-06-07T07:53:29.826Z,32.90
2023-06-07T07:55:56.660Z,32.26
2023-06-07T07:58:23.277Z,33.41
2023-06-07T08:00:49.794Z,33.83
2023-06-07T08:03:16.662Z,33.99
2023-06-07T08:05:43.464Z,35.52
2023-06-07T08:08:09.931Z,34.16
2023-06-07T08:10:36.855Z,32.60
2023-06-07T08:13:03.415Z,31.92
2023-06-07T08:15:30.297Z,30.06
2023-06-07T08:17:56.859Z,31.78
2023-06-07T08:20:23.387Z,31.54
2023-06-07T08:22:54.340Z,32.29
2023-06-07T08:25:21.064Z,32.03
2023-06-07T08:27:47.811Z,32.85
2023-06-07T08:30:15.316Z,30.89
2023-06-07T08:32:43.468Z,29.52
2023-06-07T08:35:12.024Z,28.36
2023-06-07T08:37:39.057Z,27.89
2023-06-07T08:40:07.357Z,26.16
2023-06-07T08:42:34.455Z,26.50
2023-06-07T08:45:01.419Z,26.05
2023-06-07T08:47:29.490Z,26.55
2023-06-07T08:49:57.855Z,25.49
2023-06-07T08:52:26.055Z,25.95
2023-06-07T08:54:56.249Z,26.12
2023-06-07T08:57:23.677Z,27.67
2023-06-07T08:59:50.604Z,28.84
2023-06-07T09:02:17.735Z,28.85
2023-06-07T09:04:44.836Z,25.83
2023-06-07T09:07:11.792Z,28.54
2023-06-07T09:09:41.255Z,27.57
2023-06-07T09:12:08.154Z,24.62
2023-06-07T09:14:35.622Z,26.34
2023-06-07T09:17:04.171Z,24.61
2023-06-07T09:19:41.075Z,22.44
2023-06-07T09:22:09.873Z,22.52
2023-06-07T09:24:38.212Z,21.81
2023-06-07T09:27:05.765Z,20.03
2023-06-07T09:29:43.609Z,20.37
2023-06-07T09:32:25.614Z,21.24
2023-06-07T09:34:55.102Z,21.85
2023-06-07T09:37:22.692Z,20.89
2023-06-07T09:39:53.207Z,21.94
2023-06-07T09:42:19.831Z,23.12
2023-06-07T09:44:46.503Z,23.96
2023-06-07T09:47:24.105Z,25.60
2023-06-07T09:49:56.337Z,21.15
2023-06-07T09:52:23.436Z,20.79
2023-06-07T09:54:49.942Z,19.76
2023-06-07T09:57:25.629Z,18.32
2023-06-07T10:00:16.650Z,17.00
2023-06-07T10:02:44.501Z,18.50
2023-06-07T10:05:13.971Z,18.38
2023-06-07T10:07:46.046Z,20.53
2023-06-07T10:10:15.886Z,21.77
2023-06-07T10:12:45.348Z,19.16
2023-06-07T10:15:17.000Z,19.80
2023-06-07T10:17:55.202Z,20.07
2023-06-07T10:20:32.840Z,21.00
2023-06-07T10:23:07.520Z,20.21
2023-06-07T10:25:51.065Z,20.12
2023-06-07T10:28:22.635Z,19.39
2023-06-07T10:30:54.571Z,19.62
2023-06-07T10:33:24.218Z,19.21
2023-06-07T10:35:51.791Z,20.46
2023-06-07T10:38:19.712Z,20.82
2023-06-07T10:40:46.947Z,22.02
2023-06-07T10:43:13.665Z,19.23
2023-06-07T10:45:40.824Z,19.47
2023-06-07T10:48:34.235Z,18.34
2023-06-07T10:51:00.830Z,21.77
2023-06-07T10:53:50.373Z,18.93
2023-06-07T10:56:33.687Z,17.78
2023-06-07T10:59:15.953Z,19.99
2023-06-07T11:01:55.451Z,18.26
2023-06-07T11:04:41.110Z,20.41
2023-06-07T11:07:21.023Z,19.50
2023-06-07T11:09:49.768Z,20.56
2023-06-07T11:12:37.015Z,20.93
2023-06-07T11:15:25.903Z,21.51
2023-06-07T11:18:00.724Z,20.28
2023-06-07T11:20:39.718Z,21.53
2023-06-07T11:23:31.561Z,19.21
2023-06-07T11:26:07.454Z,19.93
2023-06-07T11:28:36.282Z,19.26
2023-06-07T11:31:04.747Z,21.25
2023-06-07T11:33:33.437Z,19.08
2023-06-07T11:36:00.093Z,18.68
2023-06-07T11:38:29.760Z,20.52
2023-06-07T11:40:57.316Z,23.25
2023-06-07T11:43:26.630Z,22.80
2023-06-07T11:45:56.631Z,21.23
2023-06-07T11:48:27.959Z,20.74
2023-06-07T11:50:55.162Z,19.27
2023-06-07T11:53:22.775Z,21.50
2023-06-07T11:55:49.596Z,22.42
2023-06-07T11:58:16.306Z,20.61
2023-06-07T12:00:45.094Z,21.18
2023-06-07T12:03:12.761Z,20.13
2023-06-07T12:05:39.423Z,18.56
2023-06-07T12:08:14.778Z,17.75
2023-06-07T12:10:41.303Z,17.35
2023-06-07T12:13:13.954Z,18.43
2023-06-07T12:15:47.523Z,19.82
2023-06-07T12:18:19.972Z,19.76
2023-06-07T12:20:49.820Z,19.53
2023-06-07T12:23:21.708Z,18.18
2023-06-07T12:25:49.181Z,18.69
2023-06-07T12:28:15.844Z,20.50
2023-06-07T12:30:43.262Z,20.30
2023-06-07T12:33:14.782Z,20.05
2023-06-07T12:35:47.116Z,18.99
2023-06-07T12:38:14.536Z,18.86
2023-06-07T12:40:41.210Z,18.63
2023-06-07T12:43:07.742Z,18.73
2023-06-07T12:45:34.283Z,20.08
2023-06-07T12:48:00.921Z,19.38
2023-06-07T12:50:27.638Z,18.96
2023-06-07T12:52:54.442Z,21.33
2023-06-07T12:55:20.954Z,25.37
2023-06-07T12:57:47.684Z,21.29
2023-06-07T13:00:15.147Z,20.72
2023-06-07T13:02:43.161Z,21.18
2023-06-07T13:05:13.783Z,21.17
2023-06-07T13:07:41.383Z,20.68
2023-06-07T13:10:09.236Z,20.42
2023-06-07T13:12:36.167Z,21.07
2023-06-07T13:15:02.809Z,19.07
2023-06-07T13:17:29.565Z,19.94
2023-06-07T13:19:56.284Z,19.99
2023-06-07T13:22:22.884Z,19.22
2023-06-07T13:24:49.450Z,20.29
2023-06-07T13:27:15.978Z,19.20
2023-06-07T13:29:42.866Z,19.27
2023-06-07T13:32:09.707Z,18.07
2023-06-07T13:34:36.432Z,19.03
2023-06-07T13:37:02.955Z,18.51
2023-06-07T13:39:29.552Z,20.12
2023-06-07T13:41:56.747Z,20.70
2023-06-07T13:44:23.383Z,19.34
2023-06-07T13:46:51.048Z,19.54
2023-06-07T13:49:18.056Z,19.34
2023-06-07T13:51:44.699Z,19.05
2023-06-07T13:54:11.368Z,19.60
2023-06-07T13:56:38.061Z,21.20
2023-06-07T13:59:04.574Z,19.89
2023-06-07T14:01:31.349Z,21.02
2023-06-07T14:03:59.045Z,22.92
2023-06-07T14:06:28.072Z,24.83
2023-06-07T14:08:54.603Z,24.45
2023-06-07T14:11:22.803Z,22.52
2023-06-07T14:13:49.368Z,23.84
2023-06-07T14:16:16.453Z,21.07
2023-06-07T14:18:42.993Z,21.16
2023-06-07T14:21:09.549Z,23.25
2023-06-07T14:23:36.269Z,22.79
2023-06-07T14:26:02.768Z,22.52
2023-06-07T14:28:29.304Z,22.93
2023-06-07T14:30:55.839Z,23.94
2023-06-07T14:33:22.351Z,25.61
2023-06-07T14:35:48.881Z,23.91
2023-06-07T14:38:15.603Z,23.08
2023-06-07T14:40:42.189Z,22.53
2023-06-07T14:43:08.724Z,23.50
2023-06-07T14:45:35.372Z,22.11
2023-06-07T14:48:06.264Z,22.42
2023-06-07T14:50:33.160Z,23.06
2023-06-07T14:53:00.522Z,22.52
2023-06-07T14:55:27.035Z,23.99
2023-06-07T14:57:54.620Z,22.29
2023-06-07T15:00:21.774Z,23.14
2023-06-07T15:02:48.364Z,21.12
2023-06-07T15:05:14.946Z,20.80
2023-06-07T15:07:41.483Z,21.12
2023-06-07T15:10:08.902Z,21.97
2023-06-07T15:12:35.790Z,23.30
2023-06-07T15:15:02.356Z,23.78
2023-06-07T15:17:28.884Z,22.63
2023-06-07T15:19:55.576Z,22.80
2023-06-07T15:22:22.073Z,21.70
2023-06-07T15:24:49.889Z,21.46
2023-06-07T15:27:16.678Z,22.26
2023-06-07T15:29:43.273Z,23.09
2023-06-07T15:32:09.760Z,24.08
2023-06-07T15:34:36.480Z,23.59
2023-06-07T15:37:03.143Z,23.24
2023-06-07T15:39:29.724Z,24.58
2023-06-07T15:41:56.301Z,23.11
2023-06-07T15:44:22.860Z,23.51
2023-06-07T15:46:50.031Z,24.67
2023-06-07T15:49:19.510Z,25.53
2023-06-07T15:51:46.783Z,23.56
2023-06-07T15:54:13.345Z,25.16
2023-06-07T15:56:43.858Z,26.07
2023-06-07T15:59:11.465Z,24.78
2023-06-07T16:01:39.030Z,25.53
2023-06-07T16:04:05.786Z,25.02
2023-06-07T16:06:33.053Z,25.72
2023-06-07T16:09:04.012Z,25.16
2023-06-07T16:11:30.616Z,26.34
2023-06-07T16:13:57.188Z,25.04
2023-06-07T16:16:23.812Z,25.68
2023-06-07T16:18:52.794Z,25.72
2023-06-07T16:21:19.744Z,26.07
2023-06-07T16:23:46.367Z,26.65
2023-06-07T16:26:12.889Z,26.90
2023-06-07T16:28:39.414Z,26.82
2023-06-07T16:31:06.045Z,26.15
2023-06-07T16:33:32.681Z,26.48
2023-06-07T16:35:59.185Z,25.88
2023-06-07T16:38:25.741Z,26.53
2023-06-07T16:40:52.244Z,27.52
2023-06-07T16:43:18.714Z,25.84
2023-06-07T16:45:45.251Z,26.46
2023-06-07T16:48:11.814Z,26.24
2023-06-07T16:50:38.446Z,26.56
2023-06-07T16:53:05.986Z,26.24
2023-06-07T16:55:32.662Z,26.60
2023-06-07T16:57:59.190Z,25.95
2023-06-07T17:00:26.274Z,27.82
2023-06-07T17:02:52.872Z,28.11
2023-06-07T17:05:21.018Z,27.74
2023-06-07T17:07:47.664Z,26.80
2023-06-07T17:10:14.327Z,27.83
2023-06-07T17:12:40.881Z,27.75
2023-06-07T17:15:07.947Z,28.13
2023-06-07T17:17:34.466Z,28.15
2023-06-07T17:20:00.957Z,27.91
2023-06-07T17:22:27.498Z,27.30
2023-06-07T17:24:54.075Z,28.34
2023-06-07T17:27:20.701Z,27.99
2023-06-07T17:29:47.175Z,28.07
2023-06-07T17:32:13.728Z,28.35
2023-06-07T17:34:40.602Z,27.48
2023-06-07T17:37:07.135Z,27.21
2023-06-07T17:39:33.679Z,27.38
2023-06-07T17:42:00.301Z,27.77
2023-06-07T17:44:27.547Z,27.41
2023-06-07T17:46:54.184Z,27.90
2023-06-07T17:49:20.779Z,28.46
2023-06-07T17:51:48.494Z,28.21
2023-06-07T17:54:15.235Z,28.89
2023-06-07T17:56:41.826Z,28.94
2023-06-07T17:59:08.414Z,29.34
2023-06-07T18:01:34.959Z,30.03
2023-06-07T18:04:06.880Z,30.38
2023-06-07T18:06:33.601Z,30.77
2023-06-07T18:09:00.111Z,31.31
2023-06-07T18:11:27.342Z,31.38
2023-06-07T18:13:53.852Z,31.62
2023-06-07T18:16:20.726Z,31.26
2023-06-07T18:18:47.272Z,32.50
2023-06-07T18:21:14.692Z,33.14
2023-06-07T18:23:41.482Z,33.17
2023-06-07T18:26:08.123Z,34.85
2023-06-07T18:28:34.890Z,35.13
2023-06-07T18:31:01.497Z,34.98
2023-06-07T18:33:31.274Z,35.27
2023-06-07T18:35:57.900Z,34.99
2023-06-07T18:38:25.277Z,36.01
2023-06-07T18:40:52.884Z,35.84
2023-06-07T18:43:20.257Z,36.15
2023-06-07T18:45:48.552Z,36.48
2023-06-07T18:48:17.707Z,36.31
2023-06-07T18:50:44.370Z,36.78
2023-06-07T18:53:13.936Z,36.04
2023-06-07T18:55:40.557Z,36.27
2023-06-07T18:58:09.273Z,35.72
2023-06-07T19:00:36.038Z,36.07
2023-06-07T19:03:02.677Z,36.33
2023-06-07T19:05:30.113Z,36.23
2023-06-07T19:07:56.693Z,36.94
2023-06-07T19:10:23.277Z,36.67
2023-06-07T19:12:49.803Z,35.48
2023-06-07T19:15:16.471Z,35.46
2023-06-07T19:17:43.024Z,36.09
2023-06-07T19:20:09.873Z,36.04
2023-06-07T19:22:36.401Z,36.04
2023-06-07T19:25:03.054Z,37.69
2023-06-07T19:27:29.844Z,38.09
2023-06-07T19:29:56.393Z,39.50
2023-06-07T19:32:22.962Z,40.62
2023-06-07T19:34:50.223Z,40.42
2023-06-07T19:37:17.050Z,40.61
2023-06-07T19:39:43.778Z,40.09
2023-06-07T19:42:12.819Z,40.63
2023-06-07T19:44:40.909Z,42.00
2023-06-07T19:47:08.560Z,40.32
2023-06-07T19:49:35.566Z,40.60
2023-06-07T19:52:03.961Z,41.13
2023-06-07T19:54:30.601Z,39.58
2023-06-07T19:56:57.220Z,38.59
2023-06-07T19:59:23.736Z,39.68
2023-06-07T20:01:50.757Z,40.20
2023-06-07T20:04:17.569Z,39.67
2023-06-07T20:06:44.516Z,40.48
2023-06-07T20:09:11.465Z,42.24
2023-06-07T20:11:38.091Z,43.42
2023-06-07T20:14:04.628Z,40.40
2023-06-07T20:16:31.496Z,41.96
2023-06-07T20:18:58.081Z,42.43
2023-06-07T20:21:24.691Z,43.34
2023-06-07T20:23:52.059Z,43.50
2023-06-07T20:26:18.664Z,43.95
2023-06-07T20:28:45.184Z,43.63
2023-06-07T20:31:11.732Z,43.15
2023-06-07T20:33:38.389Z,42.72
2023-06-07T20:36:05.218Z,42.87
2023-06-07T20:38:31.885Z,42.91
2023-06-07T20:41:00.133Z,42.15
2023-06-07T20:43:26.675Z,42.82
2023-06-07T20:45:53.295Z,43.35
2023-06-07T20:48:19.872Z,44.09
2023-06-07T20:50:46.628Z,43.09
2023-06-07T20:53:13.188Z,42.89
2023-06-07T20:55:39.686Z,42.57
2023-06-07T20:58:06.395Z,43.19
2023-06-07T21:00:32.911Z,43.03
2023-06-07T21:02:59.675Z,44.19
2023-06-07T21:05:27.072Z,44.37
2023-06-07T21:07:53.622Z,45.20
2023-06-07T21:10:20.139Z,45.88
2023-06-07T21:12:46.678Z,45.35
2023-06-07T21:15:13.315Z,45.58
2023-06-07T21:17:40.535Z,45.79
2023-06-07T21:20:09.114Z,46.18
2023-06-07T21:22:35.994Z,46.19
2023-06-07T21:25:03.321Z,46.36
2023-06-07T21:27:29.873Z,47.19
2023-06-07T21:29:56.918Z,46.66
2023-06-07T21:32:23.453Z,45.77
2023-06-07T21:34:50.012Z,46.25
2023-06-07T21:37:17.190Z,45.98
2023-06-07T21:39:45.039Z,46.19
2023-06-07T21:42:12.580Z,46.58
2023-06-07T21:44:39.480Z,46.97
2023-06-07T21:47:07.416Z,46.63
2023-06-07T21:49:34.054Z,46.50
2023-06-07T21:52:00.643Z,46.78
2023-06-07T21:54:28.376Z,47.23
2023-06-07T21:56:55.242Z,48.98
2023-06-07T21:59:24.770Z,48.58
2023-06-07T22:01:51.457Z,49.28
2023-06-07T22:04:18.052Z,48.94
2023-06-07T22:06:44.733Z,48.06
2023-06-07T22:09:12.361Z,48.49
2023-06-07T22:11:42.298Z,50.01
2023-06-07T22:14:10.508Z,51.62
2023-06-07T22:16:37.142Z,51.28
2023-06-07T22:19:03.746Z,51.22
2023-06-07T22:21:31.452Z,49.56
2023-06-07T22:23:59.004Z,48.38
2023-06-07T22:26:30.473Z,49.11
2023-06-07T22:29:05.834Z,48.98
2023-06-07T22:31:35.485Z,49.23
2023-06-07T22:34:05.581Z,49.59
2023-06-07T22:36:33.340Z,49.27
2023-06-07T22:39:01.227Z,49.33
2023-06-07T22:41:28.738Z,49.84
2023-06-07T22:43:57.358Z,49.55
2023-06-07T22:46:28.132Z,50.39
2023-06-07T22:49:01.975Z,50.71
2023-06-07T22:51:31.588Z,50.25
2023-06-07T22:53:58.211Z,49.68
2023-06-07T22:56:24.770Z,50.39
2023-06-07T22:58:51.853Z,49.96
2023-06-07T23:01:19.873Z,50.30
2023-06-07T23:03:46.797Z,50.05
2023-06-07T23:06:13.982Z,50.05
2023-06-07T23:08:40.514Z,50.40
2023-06-07T23:11:07.072Z,51.05
2023-06-07T23:13:33.751Z,51.36
2023-06-07T23:16:00.248Z,51.30
2023-06-07T23:18:31.261Z,51.97
2023-06-07T23:20:57.972Z,51.95
2023-06-07T23:23:25.059Z,51.94
2023-06-07T23:25:51.722Z,52.57
2023-06-07T23:28:18.303Z,52.67
2023-06-07T23:30:44.803Z,53.03
2023-06-07T23:33:12.958Z,52.46
2023-06-07T23:35:42.078Z,52.20
2023-06-07T23:38:08.673Z,52.01
2023-06-07T23:40:35.205Z,52.43
2023-06-07T23:43:03.259Z,52.08
2023-06-07T23:45:30.144Z,52.72
2023-06-07T23:47:56.697Z,52.55
2023-06-07T23:50:23.201Z,52.74
2023-06-07T23:52:49.735Z,52.93
2023-06-07T23:55:16.348Z,52.63
2023-06-07T23:57:42.916Z,54.20
